WetterOnline ( http://www.wetteronline.de )

Wetter aktuell Sonthofen/Oberallgäu

Aktuelles Wetter: Oberstdorf (812m)

6-stündlich | Neueste Meldungen
Ortszeit Temperatur Wetter
Di, 22.01. 7:00 -10.6° C bewölkt
Di, 22.01. 1:00 -7.0° C bewölkt
Mo, 21.01. 19:00 -4.0° C bedeckt
Mo, 21.01. 13:00 -1.6° C bedeckt
Mo, 21.01. 7:00 -5.7° C bedeckt
Mo, 21.01. 1:00 -10.2° C wolkig
So, 20.01. 19:00 -3.5° C leicht bewölkt
So, 20.01. 13:00 -1.5° C wolkig
Ortszeit Temperatur Wetter
Di, 22.01. 10:00 -11.1° C leicht bewölkt
Di, 22.01. 9:40 -10.1° C bedeckt
Di, 22.01. 9:30 -10.6° C Nebel
Di, 22.01. 9:20 -10.6° C Schneegriesel
Di, 22.01. 9:10 -10.5° C Schneegriesel
Di, 22.01. 9:00 -10.6° C bedeckt
Di, 22.01. 8:50 -10.6° C bedeckt
Di, 22.01. 8:30 -11.2° C bedeckt
Di, 22.01. 8:00 -10.8° C Nebel
Di, 22.01. 7:30 -12.4° C Nebel
Di, 22.01. 7:00 -10.6° C bewölkt
Ortszeit Relative Feuchte Sichtweite
Di, 22.01. 7:00 89% 13 km
Di, 22.01. 1:00 93% 2.6 km
Mo, 21.01. 19:00 88% 7 km
Mo, 21.01. 13:00 70% 17 km
Mo, 21.01. 7:00 90% 70 km
Mo, 21.01. 1:00 89% 55 km
So, 20.01. 19:00 85% 27 km
So, 20.01. 13:00 62% 65 km
Ortszeit Relative Feuchte Sichtweite
Di, 22.01. 10:00 84% 7 km
Di, 22.01. 9:40 88% -
Di, 22.01. 9:30 92% 0.8 km
Di, 22.01. 9:20 92% -
Di, 22.01. 9:10 92% -
Di, 22.01. 9:00 92% 3.9 km
Di, 22.01. 8:50 92% -
Di, 22.01. 8:30 92% 6 km
Di, 22.01. 8:00 96% 100 m
Di, 22.01. 7:30 94% <100 m
Di, 22.01. 7:00 89% 13 km
Ortszeit Niederschlagsmenge Niederschlagsart
Di, 22.01. 7:00 0.0 l/m2 in 12 Std. -
Di, 22.01. 1:00 0.0 l/m2 in 6 Std. -
Mo, 21.01. 19:00 0.0 l/m2 in 12 Std. -
Mo, 21.01. 13:00 0.0 l/m2 in 6 Std. -
Mo, 21.01. 7:00 0.0 l/m2 in 12 Std. -
Mo, 21.01. 1:00 0.0 l/m2 in 6 Std. -
So, 20.01. 19:00 0.0 l/m2 in 12 Std. -
So, 20.01. 13:00 0.0 l/m2 in 6 Std. -
Ortszeit Niederschlagsmenge Niederschlagsart
Di, 22.01. 10:00 0.1 l/m2 in 1 Std. Schnee
Di, 22.01. 9:40 keine Meldung -
Di, 22.01. 9:30 0.1 l/m2 in 1 Std. -
Di, 22.01. 9:20 keine Meldung -
Di, 22.01. 9:10 keine Meldung -
Di, 22.01. 9:00 0.0 l/m2 in 1 Std. -
Di, 22.01. 8:50 keine Meldung -
Di, 22.01. 8:30 0.0 l/m2 in 1 Std. -
Di, 22.01. 8:00 0.0 l/m2 in 1 Std. -
Di, 22.01. 7:30 0.0 l/m2 in 1 Std. -
Di, 22.01. 7:00 0.0 l/m2 in 1 Std. -
Ortszeit Stärke Spitze Richtung
km/h Bft. km/h Grad Sektor
Di, 22.01. 7:00 6 1 9 160° S
Di, 22.01. 1:00 0 0 7 - -
Mo, 21.01. 19:00 2 1 7 220° SW
Mo, 21.01. 13:00 2 1 6 260° W
Mo, 21.01. 7:00 4 1 11 170° S
Mo, 21.01. 1:00 6 1 7 160° S
So, 20.01. 19:00 4 1 11 140° SO
So, 20.01. 13:00 2 1 9 360° N
Ortszeit Stärke Spitze Richtung
km/h Bft. km/h Grad Sektor
Di, 22.01. 10:00 4 1 7 130° SO
Di, 22.01. 9:40 4 1 - 170° S
Di, 22.01. 9:30 4 1 7 150° SO
Di, 22.01. 9:20 4 1 - 150° SO
Di, 22.01. 9:10 4 1 - 170° S
Di, 22.01. 9:00 4 1 7 170° S
Di, 22.01. 8:50 4 1 - 170° S
Di, 22.01. 8:30 4 1 7 180° S
Di, 22.01. 8:00 4 1 7 180° S
Di, 22.01. 7:30 4 1 7 170° S
Di, 22.01. 7:00 6 1 9 160° S
Ortszeit Untergrenze Bedeckung Gattung
total tief tief mittel hoch
Di, 22.01. 7:00 60 m 8/8 5/8 - - -
Di, 22.01. 1:00 1500 m 7/8 7/8 - - -
Mo, 21.01. 19:00 1500 m 8/8 8/8 - - -
Mo, 21.01. 13:00 1500 m 8/8 8/8 - - -
Mo, 21.01. 7:00 1500 m 8/8 8/8 - - -
Mo, 21.01. 1:00 1500 m 7/8 5/8 - - -
So, 20.01. 19:00 4500 m 4/8 4/8 - - -
So, 20.01. 13:00 1500 m 7/8 5/8 - - -
Ortszeit Bedeckungsgrad in Achtel und Wolkenuntergrenze
Di, 22.01. 10:00 3(<30m)
Di, 22.01. 9:40 9 9 9
Di, 22.01. 9:30 8(<30m)
Di, 22.01. 9:20 8(<30m)
Di, 22.01. 9:10 8(<30m)
Di, 22.01. 9:00 8(<30m)
Di, 22.01. 8:50 8(<30m)
Di, 22.01. 8:30 8(30m)
Di, 22.01. 8:00 8(<30m)
Di, 22.01. 7:30 6(30m) 7(1020m)
Di, 22.01. 7:00 5(60m)
Ortszeit Stationsdruck (hPa) Tendenz (hPa in 3 Std.)
Di, 22.01. 7:00 918 - 1,9
Di, 22.01. 1:00 922 - 0,4
Mo, 21.01. 19:00 923 + 0,1
Mo, 21.01. 13:00 923 - 0,2
Mo, 21.01. 7:00 922 + 0,6
Mo, 21.01. 1:00 922 + 0,9
So, 20.01. 19:00 920 + 1,1
So, 20.01. 13:00 918 - 0,2
Ortszeit Stationsdruck (hPa) Tendenz (hPa in 3 Std.)
Di, 22.01. 10:00 917 - 0,7
Di, 22.01. 9:40 917 keine Meldung
Di, 22.01. 9:30 918 - 0,6
Di, 22.01. 9:20 918 keine Meldung
Di, 22.01. 9:10 918 keine Meldung
Di, 22.01. 9:00 918 - 0,7
Di, 22.01. 8:50 918 keine Meldung
Di, 22.01. 8:30 918 - 1,0
Di, 22.01. 8:00 918 - 1,2
Di, 22.01. 7:30 918 - 1,4
Di, 22.01. 7:00 918 - 1,9
Ortszeit Schneehöhe (cm)
Di, 22.01. 7:00 62
Di, 22.01. 1:00 62
Mo, 21.01. 19:00 62
Mo, 21.01. 13:00 62
Mo, 21.01. 7:00 62
Mo, 21.01. 1:00 62
So, 20.01. 19:00 63
So, 20.01. 13:00 63
Ortszeit Schneehöhe (cm)
Di, 22.01. 10:00 62
Di, 22.01. 9:40 62
Di, 22.01. 9:30 62
Di, 22.01. 9:20 62
Di, 22.01. 9:10 61
Di, 22.01. 9:00 62
Di, 22.01. 8:50 62
Di, 22.01. 8:30 62
Di, 22.01. 8:00 62
Di, 22.01. 7:30 62
Di, 22.01. 7:00 62
Link zu dieser Seite / Seite empfehlen

Das Wetter in ...